Latest Coastal Weather Observations for Point Perpendicular

IDN60701

Issued at 11:51 am EST Tuesday 26 September 2017 (issued every 10 minutes, with the page automatically refreshed every 10 minutes)

About coastal observations | Map of coastal stations | Coastal observations for NSW | Marine services | Other Formats
Station Details ID: 068151 Name: POINT PERPENDICULAR AWS Lat: -35.09 Lon: 150.80 Height: 85.0 m
Data from the previous 72 hours. | See also: Recent months at Point Perpendicular
Date/Time
EST
Temp
°C
Wind Pressure Rain since
9am
mm
Weather Cloud Vis
km
Sea
Height
m
Swell
Dir  Spd
kts
Gust
kts
hPa Trend Height
m
Period
s
Dir
26/11:30am 15.7 SSE 8 12 1016.5 - 0.0 - - - - - - -
26/11:00am 15.6 SSE 9 12 1016.8 - 0.0 - - - - - - -
26/10:30am 15.3 SSE 8 12 1017.0 - 0.0 - - - - - - -
26/10:00am 15.6 SSE 8 11 1017.0 - 0.0 - - - - - - -
26/09:30am 15.3 S 7 12 1017.0 - 0.0 - - - - - - -
26/09:00am 14.7 S 7 11 1016.8 - 0.2 - - - - - - -
26/08:30am 14.1 S 6 9 1016.6 - 0.2 - - - - - - -
26/08:00am 12.8 S 4 5 1016.5 - 0.2 - - - - - - -
26/07:30am 12.9 SW 3 5 1016.1 - 0.0 - - - - - - -
26/07:00am 12.1 W 1 3 1015.7 - 0.0 - - - - - - -
26/06:30am 11.0 NW 5 6 1015.2 - 0.0 - - - - - - -
26/06:00am 11.5 NW 6 7 1014.8 - 0.0 - - - - - - -
26/05:30am 10.9 NW 4 5 1014.4 - 0.0 - - - - - - -
26/05:00am 11.4 WNW 1 2 1014.0 - 0.0 - - - - - - -
26/04:30am 11.4 NW 3 4 1013.6 - 0.0 - - - - - - -
26/04:00am 11.4 NW 1 4 1013.4 - 0.0 - - - - - - -
26/03:30am 12.2 WNW 1 2 1013.2 - 0.0 - - - - - - -
26/03:00am 12.2 WNW 2 4 1013.2 - 0.0 - - - - - - -
26/02:30am 12.7 WNW 1 2 1013.0 - 0.0 - - - - - - -
26/02:00am 13.2 WSW 1 3 1013.0 - 0.0 - - - - - - -
26/01:30am 13.7 SE 1 2 1013.1 - 0.0 - - - - - - -
26/01:00am 13.6 WSW 2 6 1013.0 - 0.0 - - - - - - -
26/12:30am 13.9 SSE 2 3 1013.1 - 0.0 - - - - - - -
26/12:00am 13.9 S 2 3 1013.1 - 0.0 - - - - - - -
 
Date/Time
EST
Temp
°C
Wind Pressure Rain since
9am
mm
Weather Cloud Vis
km
Sea
Height
m
Swell
Dir  Spd
kts
Gust
kts
hPa Trend Height
m
Period
s
Dir
25/11:30pm 13.9 S 2 3 1013.2 - 0.0 - - - - - - -
25/11:00pm 14.1 S 1 3 1013.0 - 0.0 - - - - - - -
25/10:30pm 14.3 SSE 5 7 1012.8 - 0.0 - - - - - - -
25/10:00pm 14.3 SSE 5 8 1012.7 - 0.0 - - - - - - -
25/09:30pm 14.5 SSE 9 13 1012.7 - 0.0 - - - - - - -
25/09:00pm 14.6 SSE 8 12 1012.4 - 0.0 - - - - - - -
25/08:30pm 14.7 SSE 7 10 1012.1 - 0.0 - - - - - - -
25/08:00pm 14.8 SSE 8 12 1011.6 - 0.0 - - - - - - -
25/07:30pm 14.9 SSE 9 11 1011.1 - 0.0 - - - - - - -
25/07:00pm 15.2 SSE 9 14 1010.6 - 0.0 - - - - - - -
25/06:30pm 15.6 S 11 19 1009.5 - 0.0 - - - - - - -
25/06:00pm 17.1 W 8 14 1008.8 - 0.0 - - - - - - -
25/05:30pm 19.3 W 5 13 1007.5 - 0.0 - - - - - - -
25/05:00pm 19.7 W 7 14 1006.7 - 0.0 - - - - - - -
25/04:30pm 20.1 W 8 16 1006.4 - 0.0 - - - - - - -
25/04:00pm 20.3 W 9 16 1005.8 - 0.0 - - - - - - -
25/03:30pm 20.5 W 8 15 1005.4 - 0.0 - - - - - - -
25/03:00pm 21.0 W 8 16 1005.1 - 0.0 - - - - - - -
25/02:30pm 20.5 WNW 9 17 1005.0 - 0.0 - - - - - - -
25/02:00pm 20.8 W 9 18 1004.6 - 0.0 - - - - - - -
25/01:30pm 20.8 W 9 22 1004.6 - 0.0 - - - - - - -
25/01:00pm 20.4 W 9 15 1004.5 - 0.0 - - - - - - -
25/12:30pm 21.4 W 8 14 1004.5 - 0.0 - - - - - - -
25/12:00pm 20.8 W 7 15 1004.9 - 0.0 - - - - - - -
25/11:30am 20.3 W 8 17 1005.2 - 0.0 - - - - - - -
25/11:00am 20.3 W 10 18 1005.4 - 0.0 - - - - - - -
25/10:30am 20.4 WNW 15 26 1005.4 - 0.0 - - - - - - -
25/10:29am 20.4 WNW 14 26 1005.4 - 0.0 - - - - - - -
25/10:00am 20.4 W 8 16 1005.4 - 0.0 - - - - - - -
25/09:30am 19.8 W 8 16 1005.9 - 0.0 - - - - - - -
25/09:00am 19.8 WNW 7 13 1006.0 - 0.0 - - - - - - -
25/08:30am 18.6 WNW 7 14 1005.9 - 0.0 - - - - - - -
25/08:00am 18.0 WNW 6 11 1005.8 - 0.0 - - - - - - -
25/07:30am 17.5 NW 7 12 1005.7 - 0.0 - - - - - - -
25/07:00am 17.1 NW 7 11 1005.6 - 0.0 - - - - - - -
25/06:30am 16.6 WNW 5 7 1005.7 - 0.0 - - - - - - -
25/06:00am 16.1 NW 5 7 1005.5 - 0.0 - - - - - - -
25/05:30am 15.8 N 6 8 1005.3 - 0.0 - - - - - - -
25/05:00am 16.1 N 3 4 1005.0 - 0.0 - - - - - - -
25/04:30am 16.1 NNW 3 4 1004.6 - 0.0 - - - - - - -
25/04:00am 16.3 WNW 2 4 1004.3 - 0.0 - - - - - - -
25/03:30am 17.2 NW 2 4 1004.1 - 0.0 - - - - - - -
25/03:00am 17.7 WNW 1 2 1003.9 - 0.0 - - - - - - -
25/02:30am 18.0 W 2 6 1003.7 - 0.0 - - - - - - -
25/02:00am 18.6 W 3 7 1003.6 - 0.0 - - - - - - -
25/01:30am 19.2 W 3 5 1003.4 - 0.0 - - - - - - -
25/01:00am 18.8 W 2 4 1003.3 - 0.0 - - - - - - -
25/12:30am 19.6 W 3 5 1003.3 - 0.0 - - - - - - -
25/12:00am 19.2 WNW 4 5 1003.3 - 0.0 - - - - - - -
 
Date/Time
EST
Temp
°C
Wind Pressure Rain since
9am
mm
Weather Cloud Vis
km
Sea
Height
m
Swell
Dir  Spd
kts
Gust
kts
hPa Trend Height
m
Period
s
Dir
24/11:30pm 20.3 WNW 4 5 1003.3 - 0.0 - - - - - - -
24/11:00pm 20.4 WNW 4 5 1003.2 - 0.0 - - - - - - -
24/10:30pm 20.4 WNW 4 6 1003.1 - 0.0 - - - - - - -
24/10:00pm 20.3 WNW 5 10 1003.2 - 0.0 - - - - - - -
24/09:30pm 20.3 WNW 5 9 1003.4 - 0.0 - - - - - - -
24/09:00pm 20.4 WNW 6 12 1003.5 - 0.0 - - - - - - -
24/08:30pm 20.3 NW 8 16 1003.5 - 0.0 - - - - - - -
24/08:00pm 20.3 NW 7 12 1003.3 - 0.0 - - - - - - -
24/07:30pm 20.6 WNW 8 15 1003.0 - 0.0 - - - - - - -
24/07:00pm 20.7 WNW 9 16 1002.7 - 0.0 - - - - - - -
24/06:30pm 20.8 NW 11 19 1002.2 - 0.0 - - - - - - -
24/06:00pm 21.2 NW 11 19 1001.8 - 0.0 - - - - - - -
24/05:30pm 22.2 WNW 11 19 1001.3 - 0.0 - - - - - - -
24/05:00pm 22.3 WNW 13 26 1000.9 - 0.0 - - - - - - -
24/04:30pm 23.0 WNW 13 25 1000.2 - 0.0 - - - - - - -
24/04:03pm 23.2 WNW 15 31 1000.0 - 0.0 - - - - - - -
24/04:00pm 23.2 WNW 13 22 1000.0 - 0.0 - - - - - - -
24/03:30pm 23.5 WNW 17 31 999.9 - 0.0 - - - - - - -
24/03:00pm 23.4 WNW 15 27 999.8 - 0.0 - - - - - - -
24/02:30pm 23.6 WNW 17 30 1000.0 - 0.0 - - - - - - -
24/02:00pm 23.8 NW 19 31 1000.2 - 0.0 - - - - - - -
24/01:35pm 23.3 WNW 15 29 1000.6 - 0.0 - - - - - - -
24/01:30pm 23.4 WNW 14 25 1000.4 - 0.0 - - - - - - -
24/01:00pm 23.2 WNW 10 22 1000.3 - 0.0 - - - - - - -
24/12:30pm 22.2 WNW 13 22 1000.5 - 0.0 - - - - - - -
24/12:00pm 22.2 WNW 11 18 1000.9 - 0.0 - - - - - - -
24/11:30am 22.3 WNW 12 22 1000.9 - 0.0 - - - - - - -
24/11:00am 22.9 WNW 11 20 1000.6 - 0.0 - - - - - - -
24/10:30am 22.7 WNW 15 29 1001.7 - 0.0 - - - - - - -
24/10:00am 22.6 WNW 10 23 1002.6 - 0.0 - - - - - - -
24/09:30am 22.1 W 4 10 1003.0 - 0.0 - - - - - - -
24/09:00am 19.9 W 3 8 1003.0 - 0.0 - - - - - - -
24/08:30am 17.5 WSW 2 4 1002.9 - 0.0 - - - - - - -
24/08:00am 17.1 SSW 3 4 1002.8 - 0.0 - - - - - - -
24/07:30am 16.7 SSE 4 6 1002.5 - 0.0 - - - - - - -
24/07:00am 15.9 SSW 5 10 1002.3 - 0.0 - - - - - - -
24/06:30am 15.8 SSW 8 11 1002.4 - 0.0 - - - - - - -
24/06:00am 15.9 SSW 11 18 1002.0 - 0.0 - - - - - - -
24/05:30am 15.9 SSW 13 20 1001.2 - 0.0 - - - - - - -
24/05:00am 16.2 SW 17 28 1000.8 - 0.0 - - - - - - -
24/04:48am 16.5 SW 17 27 999.4 - 0.0 - - - - - - -
24/04:30am 18.2 WSW 12 18 998.3 - 0.0 - - - - - - -
24/04:25am 20.0 WSW 10 17 998.3 - 0.0 - - - - - - -
24/04:00am 26.4 WNW 4 8 997.6 - 0.0 - - - - - - -
24/03:30am 26.7 NW 8 13 996.8 - 0.0 - - - - - - -
24/03:00am 28.0 NW 9 16 996.2 - 0.0 - - - - - - -
24/02:30am 28.6 WNW 7 10 996.4 - 0.0 - - - - - - -
24/02:00am 28.5 NW 10 13 996.6 - 0.0 - - - - - - -
24/01:30am 26.2 NNW 10 14 997.1 - 0.0 - - - - - - -
24/01:00am 25.3 N 10 15 996.9 - 0.0 - - - - - - -
24/12:30am 25.8 N 13 19 996.2 - 0.0 - - - - - - -
24/12:00am 25.9 N 13 19 996.6 - 0.0 - - - - - - -
 
Date/Time
EST
Temp
°C
Wind Pressure Rain since
9am
mm
Weather Cloud Vis
km
Sea
Height
m
Swell
Dir  Spd
kts
Gust
kts
hPa Trend Height
m
Period
s
Dir
23/11:30pm 25.7 NNE 11 14 996.7 - 0.0 - - - - - - -
23/11:00pm 25.8 N 12 18 997.3 - 0.0 - - - - - - -
23/10:30pm 25.5 N 13 19 997.6 - 0.0 - - - - - - -
23/10:00pm 24.4 N 10 17 998.2 - 0.0 - - - - - - -
23/09:30pm 23.8 N 12 17 998.5 - 0.0 - - - - - - -
23/09:00pm 23.1 N 12 17 998.5 - 0.0 - - - - - - -
23/08:30pm 23.3 NNE 10 15 998.3 - 0.0 - - - - - - -
23/08:00pm 22.0 NNE 9 12 998.4 - 0.0 - - - - - - -
23/07:30pm 21.2 N 13 16 999.0 - 0.0 - - - - - - -
23/07:00pm 21.7 N 14 19 999.2 - 0.0 - - - - - - -
23/06:30pm 22.0 N 17 22 998.4 - 0.0 - - - - - - -
23/06:00pm 22.6 NNE 17 25 998.3 - 0.0 - - - - - - -
23/05:33pm 24.1 NNE 19 29 998.4 - 0.0 - - - - - - -
23/05:30pm 24.4 NNE 20 29 998.4 - 0.0 - - - - - - -
23/05:00pm 24.7 N 19 29 998.5 - 0.0 - - - - - - -
23/04:39pm 25.2 NNE 18 28 998.5 - 0.0 - - - - - - -
23/04:30pm 24.9 NNE 15 24 998.5 - 0.0 - - - - - - -
23/04:00pm 24.1 NNE 15 21 998.7 - 0.0 - - - - - - -
23/03:30pm 24.7 NNE 17 25 998.8 - 0.0 - - - - - - -
23/03:00pm 26.0 NNE 16 25 999.2 - 0.0 - - - - - - -
23/02:30pm 26.2 NNE 13 19 999.7 - 0.0 - - - - - - -
23/02:00pm 26.6 NNE 13 19 1000.2 - 0.0 - - - - - - -
23/01:30pm 26.1 NNE 14 18 1001.0 - 0.0 - - - - - - -
23/01:00pm 27.3 NNE 14 19 1001.7 - 0.0 - - - - - - -
23/12:30pm 27.2 NNE 14 18 1002.7 - 0.0 - - - - - - -
23/12:00pm 27.1 NNE 9 12 1003.9 - 0.0 - - - - - - -

Other Formats:

Comma delimited format used in spreadsheet applications
http://www.bom.gov.au/fwo/IDN60701/IDN60701.95940.axf

JavaScript Object Notation format (JSON) in row-major order
http://www.bom.gov.au/fwo/IDN60701/IDN60701.95940.json